createdAt,value
2022-11-28T00:00:35.468Z,12.50
2022-11-28T00:03:39.915Z,10.82
2022-11-28T00:06:45.980Z,11.25
2022-11-28T00:09:49.399Z,13.60
2022-11-28T00:12:52.379Z,14.48
2022-11-28T00:16:00.488Z,12.82
2022-11-28T00:19:04.807Z,12.75
2022-11-28T00:22:07.979Z,13.23
2022-11-28T00:25:10.916Z,13.57
2022-11-28T00:28:14.255Z,13.02
2022-11-28T00:31:23.036Z,12.05
2022-11-28T00:34:26.238Z,11.63
2022-11-28T00:37:29.145Z,11.85
2022-11-28T00:40:32.449Z,11.27
2022-11-28T00:43:36.991Z,11.60
2022-11-28T00:46:42.059Z,11.12
2022-11-28T00:49:44.966Z,11.43
2022-11-28T00:52:49.367Z,10.97
2022-11-28T00:55:52.271Z,11.12
2022-11-28T00:58:56.242Z,11.10
2022-11-28T01:01:59.261Z,9.55
2022-11-28T01:05:02.576Z,10.13
2022-11-28T01:08:05.442Z,9.18
2022-11-28T01:11:13.284Z,9.23
2022-11-28T01:14:18.405Z,8.98
2022-11-28T01:17:21.787Z,8.80
2022-11-28T01:20:25.028Z,8.32
2022-11-28T01:23:28.598Z,8.32
2022-11-28T01:26:31.539Z,8.35
2022-11-28T01:29:34.831Z,8.57
2022-11-28T01:32:38.020Z,9.38
2022-11-28T01:35:41.486Z,9.05
2022-11-28T01:38:44.639Z,9.20
2022-11-28T01:41:48.427Z,9.13
2022-11-28T01:44:53.967Z,10.32
2022-11-28T01:48:00.667Z,9.85
2022-11-28T01:51:07.659Z,9.65
2022-11-28T01:54:11.776Z,11.38
2022-11-28T01:57:20.654Z,10.18
2022-11-28T02:00:24.321Z,10.18
2022-11-28T02:03:34.126Z,9.70
2022-11-28T02:06:37.920Z,10.75
2022-11-28T02:09:42.897Z,10.20
2022-11-28T02:12:52.198Z,8.38
2022-11-28T02:16:16.241Z,8.90
2022-11-28T02:19:46.472Z,7.85
2022-11-28T02:23:01.681Z,8.13
2022-11-28T02:26:04.717Z,7.97
2022-11-28T02:29:45.054Z,9.77
2022-11-28T02:32:55.412Z,7.80
2022-11-28T02:36:01.401Z,6.90
2022-11-28T02:39:15.045Z,7.10
2022-11-28T02:42:31.705Z,6.97
2022-11-28T02:45:44.121Z,5.95
2022-11-28T02:48:54.517Z,6.32
2022-11-28T02:52:02.469Z,6.05
2022-11-28T02:55:07.544Z,6.47
2022-11-28T03:01:22.772Z,5.70
2022-11-28T03:04:53.299Z,5.53
2022-11-28T03:08:23.954Z,5.80
2022-11-28T03:12:05.114Z,4.93
2022-11-28T03:15:09.988Z,4.68
2022-11-28T03:18:25.434Z,4.87
2022-11-28T03:21:47.131Z,4.80
2022-11-28T03:24:56.778Z,4.37
2022-11-28T03:28:20.179Z,4.82
2022-11-28T03:31:33.985Z,4.70
2022-11-28T03:34:44.864Z,4.37
2022-11-28T03:37:55.868Z,4.12
2022-11-28T03:41:04.160Z,4.62
2022-11-28T03:44:12.198Z,5.00
2022-11-28T03:47:15.590Z,4.97
2022-11-28T03:50:44.032Z,4.80
2022-11-28T03:54:00.376Z,4.95
2022-11-28T03:57:15.319Z,4.50
2022-11-28T04:00:18.443Z,5.03
2022-11-28T04:03:41.774Z,4.45
2022-11-28T04:07:12.236Z,3.92
2022-11-28T04:10:29.773Z,4.45
2022-11-28T04:13:37.380Z,4.82
2022-11-28T04:16:54.280Z,4.93
2022-11-28T04:20:07.521Z,5.12
2022-11-28T04:23:14.103Z,4.85
2022-11-28T04:26:21.712Z,5.15
2022-11-28T04:29:25.381Z,4.80
2022-11-28T04:32:30.512Z,5.40
2022-11-28T04:35:38.610Z,5.00
2022-11-28T04:38:44.117Z,4.80
2022-11-28T04:41:55.016Z,5.80
2022-11-28T04:45:03.946Z,5.43
2022-11-28T04:48:07.625Z,5.93
2022-11-28T04:51:27.759Z,5.82
2022-11-28T04:54:39.585Z,6.55
2022-11-28T04:57:52.875Z,6.53
2022-11-28T05:01:00.131Z,7.95
2022-11-28T05:04:03.407Z,6.45
2022-11-28T05:07:08.305Z,6.18
2022-11-28T05:10:13.923Z,5.90
2022-11-28T05:13:18.087Z,6.55
2022-11-28T05:16:22.929Z,6.35
2022-11-28T05:19:26.425Z,6.80
2022-11-28T05:22:29.764Z,6.43
2022-11-28T05:25:33.032Z,7.25
2022-11-28T05:28:36.012Z,6.47
2022-11-28T05:31:39.671Z,6.05
2022-11-28T05:34:42.804Z,6.22
2022-11-28T05:37:46.198Z,7.12
2022-11-28T05:40:49.431Z,6.40
2022-11-28T05:43:53.290Z,7.03
2022-11-28T05:46:56.148Z,6.50
2022-11-28T05:49:59.580Z,7.97
2022-11-28T05:53:02.559Z,7.60
2022-11-28T05:56:16.649Z,7.70
2022-11-28T05:59:19.556Z,7.78
2022-11-28T06:02:22.809Z,7.57
2022-11-28T06:05:41.511Z,7.00
2022-11-28T06:08:51.612Z,6.75
2022-11-28T06:11:55.541Z,7.32
2022-11-28T06:14:58.509Z,6.82
2022-11-28T06:18:02.989Z,7.10
2022-11-28T06:21:07.185Z,6.78
2022-11-28T06:24:11.038Z,6.13
2022-11-28T06:27:13.956Z,7.00
2022-11-28T06:30:17.365Z,7.87
2022-11-28T06:33:20.315Z,7.00
2022-11-28T06:36:23.769Z,7.22
2022-11-28T06:39:26.713Z,7.80
2022-11-28T06:42:29.946Z,8.32
2022-11-28T06:45:35.843Z,8.38
2022-11-28T06:48:39.059Z,9.38
2022-11-28T06:51:42.366Z,8.52
2022-11-28T06:54:45.514Z,9.38
2022-11-28T06:57:49.077Z,9.00
2022-11-28T07:00:52.348Z,9.20
2022-11-28T07:03:55.878Z,9.55
2022-11-28T07:06:59.037Z,9.10
2022-11-28T07:10:02.331Z,8.95
2022-11-28T07:13:05.886Z,9.50
2022-11-28T07:16:14.438Z,9.85
2022-11-28T07:19:22.887Z,10.88
2022-11-28T07:22:25.753Z,10.55
2022-11-28T07:25:28.998Z,9.80
2022-11-28T07:28:32.856Z,10.65
2022-11-28T07:31:37.290Z,10.32
2022-11-28T07:34:45.504Z,9.65
2022-11-28T07:37:51.157Z,10.13
2022-11-28T07:40:54.124Z,9.73
2022-11-28T07:43:59.615Z,10.05
2022-11-28T07:47:02.549Z,8.85
2022-11-28T07:50:06.682Z,9.38
2022-11-28T07:53:09.547Z,10.93
2022-11-28T07:56:15.793Z,10.73
2022-11-28T07:59:18.661Z,11.50
2022-11-28T08:02:22.021Z,10.23
2022-11-28T08:05:25.260Z,10.77
2022-11-28T08:08:28.130Z,11.00
2022-11-28T08:11:32.826Z,9.73
2022-11-28T08:14:35.778Z,8.73
2022-11-28T08:17:40.277Z,9.40
2022-11-28T08:20:43.478Z,9.10
2022-11-28T08:23:46.695Z,8.90
2022-11-28T08:26:49.545Z,8.50
2022-11-28T08:29:53.995Z,8.35
2022-11-28T08:32:57.468Z,6.95
2022-11-28T08:36:00.801Z,8.27
2022-11-28T08:42:29.172Z,8.68
2022-11-28T08:45:35.313Z,8.52
2022-11-28T08:48:40.412Z,9.13
2022-11-28T08:51:43.332Z,9.93
2022-11-28T08:54:47.706Z,9.57
2022-11-28T08:57:50.692Z,9.98
2022-11-28T09:00:54.181Z,9.15
2022-11-28T09:03:57.371Z,10.63
2022-11-28T09:07:00.623Z,10.65
2022-11-28T09:10:04.115Z,8.80
2022-11-28T09:13:07.698Z,8.85
2022-11-28T09:16:10.801Z,9.80
2022-11-28T09:19:14.122Z,9.63
2022-11-28T09:22:17.051Z,8.85
2022-11-28T09:25:20.178Z,8.70
2022-11-28T09:28:23.845Z,9.10
2022-11-28T09:31:28.397Z,9.77
2022-11-28T09:34:31.578Z,8.43
2022-11-28T09:37:35.666Z,9.15
2022-11-28T09:40:41.259Z,9.20
2022-11-28T09:43:45.512Z,9.15
2022-11-28T09:46:50.592Z,8.95
2022-11-28T09:53:21.690Z,8.00
2022-11-28T09:56:24.872Z,9.05
2022-11-28T09:59:29.963Z,8.43
2022-11-28T10:05:45.442Z,8.43
2022-11-28T10:09:06.830Z,9.18
2022-11-28T10:12:39.603Z,7.90
2022-11-28T10:15:49.004Z,10.13
2022-11-28T10:19:00.544Z,8.98
2022-11-28T10:22:05.939Z,7.93
2022-11-28T10:25:18.490Z,8.60
2022-11-28T10:28:26.004Z,8.20
2022-11-28T10:31:38.586Z,8.30
2022-11-28T10:34:45.633Z,8.35
2022-11-28T10:37:49.825Z,8.38
2022-11-28T10:41:12.569Z,7.85
2022-11-28T10:44:21.177Z,8.27
2022-11-28T10:47:49.689Z,8.30
2022-11-28T10:51:03.027Z,8.45
2022-11-28T10:54:30.347Z,9.10
2022-11-28T10:58:01.087Z,8.07
2022-11-28T11:01:04.685Z,8.88
2022-11-28T11:04:19.054Z,9.57
2022-11-28T11:07:30.450Z,7.90
2022-11-28T11:10:44.681Z,8.73
2022-11-28T11:14:05.038Z,8.52
2022-11-28T11:17:10.651Z,9.80
2022-11-28T11:23:36.760Z,9.60
2022-11-28T11:26:44.039Z,11.00
2022-11-28T11:29:51.227Z,10.32
2022-11-28T11:32:56.455Z,10.63
2022-11-28T11:36:00.243Z,10.73
2022-11-28T11:39:25.463Z,9.15
2022-11-28T11:42:30.360Z,9.75
2022-11-28T11:45:35.395Z,9.15
2022-11-28T11:48:47.016Z,10.43
2022-11-28T11:51:56.190Z,10.55
2022-11-28T11:55:07.674Z,10.27
2022-11-28T11:58:11.702Z,11.27
2022-11-28T12:01:17.263Z,11.57
2022-11-28T12:04:45.088Z,11.70
2022-11-28T12:08:15.306Z,11.80
2022-11-28T12:11:23.982Z,11.93
2022-11-28T12:14:30.373Z,11.95
2022-11-28T12:17:58.856Z,11.30
2022-11-28T12:21:16.786Z,11.60
2022-11-28T12:24:30.694Z,11.45
2022-11-28T12:27:33.449Z,11.00
2022-11-28T12:30:54.882Z,11.18
2022-11-28T12:34:24.965Z,10.60
2022-11-28T12:38:09.724Z,10.43
2022-11-28T12:41:47.498Z,11.68
2022-11-28T12:45:14.891Z,11.82
2022-11-28T12:48:58.748Z,10.98
2022-11-28T12:52:19.517Z,12.45
2022-11-28T12:55:22.524Z,12.32
2022-11-28T12:58:47.707Z,12.07
2022-11-28T13:02:18.918Z,12.55
2022-11-28T13:05:32.887Z,13.62
2022-11-28T13:08:47.892Z,12.20
2022-11-28T13:12:30.320Z,11.57
2022-11-28T13:15:46.337Z,12.68
2022-11-28T13:19:04.037Z,13.38
2022-11-28T13:22:15.592Z,11.52
2022-11-28T13:25:48.767Z,11.00
2022-11-28T13:29:28.068Z,12.55
2022-11-28T13:32:33.977Z,11.52
2022-11-28T13:35:37.586Z,12.55
2022-11-28T13:39:11.826Z,12.37
2022-11-28T13:43:02.889Z,11.55
2022-11-28T13:46:09.563Z,10.95
2022-11-28T13:49:25.756Z,11.82
2022-11-28T13:55:50.667Z,11.02
2022-11-28T13:59:01.443Z,10.23
2022-11-28T14:02:23.630Z,10.35
2022-11-28T14:05:41.548Z,12.10
2022-11-28T14:08:47.361Z,11.18
2022-11-28T14:12:09.545Z,12.18
2022-11-28T14:15:29.099Z,10.80
2022-11-28T14:18:57.813Z,10.82
2022-11-28T14:22:07.899Z,10.85
2022-11-28T14:25:20.107Z,11.35
2022-11-28T14:28:37.001Z,10.65
2022-11-28T14:31:40.502Z,9.85
2022-11-28T14:34:46.972Z,11.43
2022-11-28T14:37:55.611Z,10.35
2022-11-28T14:41:03.337Z,10.45
2022-11-28T14:44:45.765Z,11.32
2022-11-28T14:48:17.972Z,10.77
2022-11-28T14:51:53.595Z,10.38
2022-11-28T14:55:17.846Z,11.43
2022-11-28T14:58:21.231Z,11.55
2022-11-28T15:02:13.072Z,11.27
2022-11-28T15:05:28.918Z,10.45
2022-11-28T15:08:38.278Z,10.38
2022-11-28T15:11:59.016Z,10.43
2022-11-28T15:15:02.200Z,11.32
2022-11-28T15:18:06.638Z,11.88
2022-11-28T15:21:15.314Z,11.88
2022-11-28T15:24:34.911Z,11.93
2022-11-28T15:27:38.521Z,10.75
2022-11-28T15:30:48.485Z,10.85
2022-11-28T15:33:52.426Z,11.27
2022-11-28T15:36:58.908Z,11.43
2022-11-28T15:40:06.861Z,11.27
2022-11-28T15:43:13.516Z,11.88
2022-11-28T15:46:24.496Z,11.27
2022-11-28T15:49:34.410Z,11.52
2022-11-28T15:52:37.929Z,11.10
2022-11-28T15:55:41.165Z,11.48
2022-11-28T15:58:45.030Z,11.98
2022-11-28T16:01:48.290Z,11.52
2022-11-28T16:05:05.096Z,11.40
2022-11-28T16:08:18.564Z,12.05
2022-11-28T16:11:26.571Z,11.63
2022-11-28T16:14:36.937Z,12.15
2022-11-28T16:17:41.965Z,12.75
2022-11-28T16:20:45.633Z,12.20
2022-11-28T16:23:49.448Z,14.05
2022-11-28T16:27:01.678Z,14.25
2022-11-28T16:30:26.465Z,12.27
2022-11-28T16:33:44.328Z,12.18
2022-11-28T16:36:50.505Z,15.75
2022-11-28T16:40:20.198Z,16.87
2022-11-28T16:43:37.761Z,15.27
2022-11-28T16:46:53.221Z,13.07
2022-11-28T16:53:41.446Z,10.15
2022-11-28T16:56:44.784Z,11.65
2022-11-28T16:59:49.506Z,11.10
2022-11-28T17:02:54.265Z,11.40
2022-11-28T17:05:57.556Z,13.53
2022-11-28T17:09:01.979Z,12.37
2022-11-28T17:12:09.641Z,11.95
2022-11-28T17:15:19.493Z,12.88
2022-11-28T17:18:22.801Z,11.95
2022-11-28T17:21:45.289Z,11.77
2022-11-28T17:24:49.056Z,11.00
2022-11-28T17:27:53.363Z,11.55
2022-11-28T17:30:56.341Z,11.30
2022-11-28T17:34:01.605Z,11.25
2022-11-28T17:37:06.447Z,11.12
2022-11-28T17:40:28.679Z,11.93
2022-11-28T17:43:37.485Z,11.27
2022-11-28T17:46:43.445Z,10.65
2022-11-28T17:49:47.406Z,10.93
2022-11-28T17:52:51.567Z,11.55
2022-11-28T17:55:59.971Z,11.60
2022-11-28T17:59:04.165Z,10.93
2022-11-28T18:02:07.823Z,11.40
2022-11-28T18:05:11.466Z,11.10
2022-11-28T18:08:21.648Z,11.18
2022-11-28T18:11:28.100Z,11.27
2022-11-28T18:14:36.615Z,11.60
2022-11-28T18:17:43.490Z,10.68
2022-11-28T18:20:50.192Z,10.93
2022-11-28T18:23:54.687Z,10.55
2022-11-28T18:26:58.452Z,10.65
2022-11-28T18:30:02.888Z,11.00
2022-11-28T18:33:06.980Z,10.55
2022-11-28T18:36:14.804Z,10.40
2022-11-28T18:39:18.475Z,10.45
2022-11-28T18:42:22.521Z,10.45
2022-11-28T18:45:26.257Z,10.20
2022-11-28T18:48:30.208Z,10.52
2022-11-28T18:51:35.619Z,10.23
2022-11-28T18:54:39.325Z,9.73
2022-11-28T18:57:43.373Z,9.45
2022-11-28T19:00:48.563Z,11.63
2022-11-28T19:03:54.353Z,9.95
2022-11-28T19:07:01.098Z,10.50
2022-11-28T19:10:05.717Z,10.10
2022-11-28T19:13:12.296Z,10.45
2022-11-28T19:16:19.595Z,10.48
2022-11-28T19:19:25.527Z,10.82
2022-11-28T19:22:28.978Z,11.30
2022-11-28T19:25:35.452Z,10.20
2022-11-28T19:28:40.831Z,12.05
2022-11-28T19:34:52.780Z,11.60
2022-11-28T19:37:56.787Z,11.10
2022-11-28T19:41:08.795Z,9.90
2022-11-28T19:44:13.571Z,11.52
2022-11-28T19:47:18.169Z,10.70
2022-11-28T19:50:21.898Z,10.15
2022-11-28T19:53:29.558Z,9.80
2022-11-28T19:56:33.877Z,10.30
2022-11-28T19:59:38.554Z,10.43
2022-11-28T20:02:42.776Z,9.98
2022-11-28T20:05:46.976Z,10.43
2022-11-28T20:08:52.963Z,35.67
2022-11-28T20:11:58.005Z,11.05
2022-11-28T20:15:03.844Z,9.18
2022-11-28T20:18:09.050Z,11.35
2022-11-28T20:21:17.760Z,10.77
2022-11-28T20:24:22.564Z,9.45
2022-11-28T20:27:26.758Z,9.17
2022-11-28T20:30:31.943Z,10.02
2022-11-28T20:33:35.597Z,9.18
2022-11-28T20:36:39.476Z,8.43
2022-11-28T20:39:43.702Z,9.48
2022-11-28T20:42:47.617Z,8.82
2022-11-28T20:45:50.998Z,8.57
2022-11-28T20:48:55.435Z,8.95
2022-11-28T20:51:58.828Z,9.10
2022-11-28T20:55:02.047Z,8.73
2022-11-28T20:58:05.418Z,7.53
2022-11-28T21:01:11.554Z,8.82
2022-11-28T21:04:17.065Z,9.50
2022-11-28T21:07:20.495Z,9.73
2022-11-28T21:10:23.677Z,10.13
2022-11-28T21:13:27.058Z,9.73
2022-11-28T21:16:31.698Z,9.52
2022-11-28T21:19:35.431Z,9.30
2022-11-28T21:22:38.439Z,10.57
2022-11-28T21:25:44.120Z,10.90
2022-11-28T21:28:50.774Z,11.50
2022-11-28T21:31:54.753Z,12.55
2022-11-28T21:35:04.106Z,14.10
2022-11-28T21:38:08.349Z,14.43
2022-11-28T21:41:11.199Z,12.73
2022-11-28T21:44:15.801Z,12.30
2022-11-28T21:47:18.589Z,12.27
2022-11-28T21:50:23.497Z,13.98
2022-11-28T21:53:27.981Z,14.02
2022-11-28T21:56:31.294Z,14.00
2022-11-28T21:59:34.470Z,13.23
2022-11-28T22:02:38.302Z,12.48
2022-11-28T22:05:41.782Z,12.70
2022-11-28T22:08:45.593Z,12.27
2022-11-28T22:11:48.932Z,13.05
2022-11-28T22:14:51.796Z,11.95
2022-11-28T22:17:55.079Z,11.60
2022-11-28T22:21:22.419Z,12.32
2022-11-28T22:24:29.690Z,12.73
2022-11-28T22:27:34.958Z,12.27
2022-11-28T22:30:40.272Z,12.50
2022-11-28T22:33:44.428Z,10.50
2022-11-28T22:36:48.077Z,12.30
2022-11-28T22:39:51.025Z,12.82
2022-11-28T22:42:56.216Z,13.40
2022-11-28T22:45:59.542Z,12.27
2022-11-28T22:49:03.969Z,13.23
2022-11-28T22:52:06.969Z,12.10
2022-11-28T22:55:10.341Z,13.98
2022-11-28T22:58:13.340Z,12.68
2022-11-28T23:01:20.113Z,13.62
2022-11-28T23:04:23.953Z,13.62
2022-11-28T23:07:27.746Z,12.32
2022-11-28T23:10:31.193Z,12.85
2022-11-28T23:13:35.713Z,14.05
2022-11-28T23:16:40.272Z,13.85
2022-11-28T23:19:43.927Z,14.85
2022-11-28T23:22:46.885Z,13.02
2022-11-28T23:25:51.173Z,13.15
2022-11-28T23:28:54.702Z,14.23
2022-11-28T23:31:58.412Z,13.18
2022-11-28T23:35:03.022Z,14.30
2022-11-28T23:38:06.354Z,14.07
2022-11-28T23:41:10.084Z,14.02
2022-11-28T23:44:15.263Z,14.10
2022-11-28T23:47:18.565Z,13.80
2022-11-28T23:50:21.692Z,13.30
2022-11-28T23:53:25.114Z,13.85
2022-11-28T23:56:30.817Z,13.27
2022-11-28T23:59:34.045Z,12.48
